Time;durP1;ratioP1;P1;durP2;ratioP2;P2;SDS_P1;SDS_P2;PMS_P1;PMS_P2;Temp;Humidity;BMP_temperature;BMP_pressure;BME280_temperature;BME280_humidity;BME280_pressure;Samples;Min_cycle;Max_cycle;Signal;HPM_P1;HPM_P2
2023/03/07 00:00:41;;;;;;;8.55;4.78;;;8.00;48.40;;;;;;2285281;55;21000;-72
2023/03/07 00:03:08;;;;;;;8.93;4.87;;;8.00;48.50;;;;;;2394507;55;21584;-73
2023/03/07 00:05:34;;;;;;;9.57;5.00;;;7.90;48.40;;;;;;2302649;55;21015;-70
2023/03/07 00:08:00;;;;;;;9.63;4.82;;;7.90;48.50;;;;;;2425650;55;21015;-72
2023/03/07 00:10:27;;;;;;;9.27;4.70;;;7.90;48.50;;;;;;2285172;56;20952;-71
2023/03/07 00:12:53;;;;;;;8.13;4.37;;;7.90;48.50;;;;;;2284918;56;21326;-71
2023/03/07 00:15:19;;;;;;;8.02;4.78;;;7.90;48.50;;;;;;2285887;55;20923;-69
2023/03/07 00:17:45;;;;;;;8.18;4.65;;;7.90;48.60;;;;;;2285185;56;21476;-71
2023/03/07 00:20:14;;;;;;;10.52;5.55;;;7.90;48.60;;;;;;2285317;55;20954;-69
2023/03/07 00:22:41;;;;;;;9.77;4.65;;;7.90;48.60;;;;;;2284980;56;21770;-69
2023/03/07 00:25:08;;;;;;;10.57;5.30;;;7.90;48.60;;;;;;2519612;54;21470;-71
2023/03/07 00:27:34;;;;;;;7.15;4.43;;;7.90;48.60;;;;;;2284845;55;21514;-71
2023/03/07 00:30:01;;;;;;;8.63;4.72;;;7.90;48.60;;;;;;2285681;55;20941;-70
2023/03/07 00:32:27;;;;;;;9.02;4.65;;;7.90;48.60;;;;;;2285620;56;20990;-71
2023/03/07 00:34:54;;;;;;;8.82;4.53;;;7.90;48.60;;;;;;2291462;55;21304;-71
2023/03/07 00:37:21;;;;;;;8.20;4.65;;;7.90;48.60;;;;;;2285597;55;21403;-72
2023/03/07 00:39:47;;;;;;;9.52;5.00;;;7.90;48.60;;;;;;2285265;56;20938;-73
2023/03/07 00:42:16;;;;;;;8.88;4.97;;;7.90;48.60;;;;;;2476664;54;20933;-72
2023/03/07 00:44:43;;;;;;;10.18;5.85;;;7.90;48.60;;;;;;2285280;55;20915;-70
2023/03/07 00:47:09;;;;;;;9.63;5.35;;;7.80;48.50;;;;;;2285302;55;21002;-70
2023/03/07 00:49:35;;;;;;;9.70;5.30;;;7.80;48.50;;;;;;2284638;55;21391;-70
2023/03/07 00:52:01;;;;;;;10.23;5.15;;;7.80;48.40;;;;;;2285324;55;20974;-72
2023/03/07 00:54:28;;;;;;;8.73;4.78;;;7.90;48.50;;;;;;2519194;54;20957;-72
2023/03/07 00:56:54;;;;;;;9.50;4.87;;;7.80;48.40;;;;;;2453163;54;21352;-73
2023/03/07 00:59:20;;;;;;;11.48;5.40;;;7.80;48.40;;;;;;2519730;54;20966;-70
2023/03/07 01:01:46;;;;;;;9.45;5.30;;;7.80;48.40;;;;;;2284806;56;21502;-70
2023/03/07 01:04:13;;;;;;;8.43;5.07;;;7.80;48.40;;;;;;2518981;54;20974;-69
2023/03/07 01:06:39;;;;;;;9.45;5.10;;;7.80;48.30;;;;;;2396390;54;21498;-69
2023/03/07 01:09:06;;;;;;;13.10;5.15;;;7.80;48.30;;;;;;2285490;55;21065;-71
2023/03/07 01:11:32;;;;;;;10.70;5.32;;;7.90;48.40;;;;;;2408710;54;21743;-71
2023/03/07 01:13:59;;;;;;;8.98;4.80;;;7.90;48.40;;;;;;2285409;56;21373;-69
2023/03/07 01:16:30;;;;;;;10.65;5.32;;;7.80;48.30;;;;;;2370874;54;21424;-71
2023/03/07 01:18:58;;;;;;;10.02;5.15;;;7.80;48.30;;;;;;2380014;54;20990;-72
2023/03/07 01:21:26;;;;;;;10.40;5.35;;;7.90;48.40;;;;;;2285004;55;21463;-72
2023/03/07 01:23:53;;;;;;;9.48;5.25;;;7.90;48.30;;;;;;2284808;55;21499;-72
2023/03/07 01:26:21;;;;;;;8.82;4.90;;;7.90;48.30;;;;;;2285518;55;21350;-72
2023/03/07 01:28:49;;;;;;;10.50;5.32;;;7.80;48.30;;;;;;2284874;56;20990;-71
2023/03/07 01:31:15;;;;;;;9.13;5.00;;;7.80;48.30;;;;;;2289462;55;21058;-72
2023/03/07 01:33:41;;;;;;;9.57;5.37;;;7.90;48.40;;;;;;2281899;56;21514;-72
2023/03/07 01:36:28;;;;;;;11.38;5.97;;;7.80;48.30;;;;;;2284776;55;20946;-71
2023/03/07 01:39:05;;;;;;;8.82;5.07;;;7.90;48.30;;;;;;2470806;54;21482;-72
2023/03/07 01:41:35;;;;;;;11.20;5.32;;;7.90;48.30;;;;;;2364487;54;21309;-73
2023/03/07 01:44:04;;;;;;;8.27;5.10;;;7.90;48.30;;;;;;2284573;55;20959;-69
2023/03/07 01:46:42;;;;;;;10.38;5.05;;;7.90;48.30;;;;;;2285037;56;21008;-70
2023/03/07 01:49:33;;;;;;;10.32;5.40;;;7.90;48.20;;;;;;2519054;55;21289;-74
2023/03/07 01:52:07;;;;;;;10.23;5.22;;;7.90;48.20;;;;;;2284622;56;21011;-73
2023/03/07 01:54:37;;;;;;;9.45;5.18;;;7.90;48.20;;;;;;2518928;54;20950;-69
2023/03/07 01:57:03;;;;;;;10.13;5.70;;;7.90;48.10;;;;;;2410744;54;21042;-73
2023/03/07 01:59:41;;;;;;;9.75;5.15;;;7.90;48.10;;;;;;2284792;55;21041;-72
2023/03/07 02:02:13;;;;;;;9.55;5.03;;;7.90;48.00;;;;;;2307008;54;21022;-72
2023/03/07 02:05:26;;;;;;;9.63;4.70;;;7.90;48.10;;;;;;2284588;55;21305;-72
2023/03/07 02:07:52;;;;;;;;;;;7.90;48.00;;;;;;2288080;55;20950;-72
2023/03/07 02:10:19;;;;;;;7.90;4.25;;;7.90;48.00;;;;;;2285445;56;20322;-69
2023/03/07 02:12:45;;;;;;;9.30;4.45;;;7.90;48.00;;;;;;2284473;55;20986;-72
2023/03/07 02:15:12;;;;;;;9.20;5.03;;;7.90;48.00;;;;;;2285112;56;20970;-70
2023/03/07 02:17:44;;;;;;;8.10;4.65;;;7.90;48.00;;;;;;2285296;55;20927;-71
2023/03/07 02:22:07;;;;;;;13.07;6.18;;;7.90;48.00;;;;;;2285843;55;20984;-69
2023/03/07 02:26:36;;;;;;;9.50;5.25;;;7.90;47.90;;;;;;2288046;55;21376;-70
2023/03/07 02:29:02;;;;;;;7.80;4.47;;;7.90;47.90;;;;;;2285661;56;20918;-70
2023/03/07 02:31:28;;;;;;;9.00;5.00;;;7.90;47.90;;;;;;2286128;56;20926;-72
2023/03/07 02:33:54;;;;;;;11.23;5.35;;;7.90;47.90;;;;;;2413110;54;20942;-73
2023/03/07 02:36:27;;;;;;;10.70;5.20;;;8.00;47.90;;;;;;2284674;56;20942;-72
2023/03/07 02:38:53;;;;;;;10.20;5.15;;;7.90;47.80;;;;;;2530951;53;20997;-71
2023/03/07 02:41:24;;;;;;;8.45;4.78;;;7.90;47.80;;;;;;2289359;55;20939;-73
2023/03/07 02:43:50;;;;;;;9.05;4.82;;;8.00;47.90;;;;;;2344996;54;20915;-72
2023/03/07 02:46:17;;;;;;;9.75;4.93;;;7.90;47.80;;;;;;2284794;55;20970;-71
2023/03/07 02:48:43;;;;;;;9.40;5.40;;;8.00;47.90;;;;;;2508998;55;20991;-69
2023/03/07 02:51:10;;;;;;;9.70;5.22;;;8.00;47.80;;;;;;2298326;55;21910;-72
2023/03/07 02:53:37;;;;;;;8.93;5.05;;;7.90;47.70;;;;;;2306337;55;20929;-70
2023/03/07 02:56:06;;;;;;;9.40;5.12;;;7.90;47.70;;;;;;2306300;56;20994;-72
2023/03/07 02:58:32;;;;;;;9.13;4.20;;;8.00;47.80;;;;;;2544638;53;21478;-69
2023/03/07 03:00:59;;;;;;;9.30;4.97;;;7.90;47.80;;;;;;2304134;54;20994;-70
2023/03/07 03:03:26;;;;;;;9.27;5.20;;;8.00;47.80;;;;;;2295464;55;20929;-72
2023/03/07 03:05:53;;;;;;;9.02;4.62;;;8.00;47.80;;;;;;2306623;56;21335;-70
2023/03/07 03:08:19;;;;;;;9.23;5.07;;;8.00;47.80;;;;;;2296343;55;21033;-73
2023/03/07 03:10:45;;;;;;;8.20;4.60;;;8.00;47.80;;;;;;2292520;55;21013;-72
2023/03/07 03:13:11;;;;;;;8.20;4.80;;;8.00;47.80;;;;;;2306379;56;21001;-70
2023/03/07 03:15:38;;;;;;;11.25;5.72;;;8.00;47.80;;;;;;2319969;54;20965;-73
2023/03/07 03:18:05;;;;;;;10.07;5.65;;;8.00;47.70;;;;;;2528253;54;21701;-71
2023/03/07 03:20:37;;;;;;;9.80;5.40;;;8.00;47.70;;;;;;2530537;54;21395;-73
2023/03/07 03:23:04;;;;;;;11.02;5.47;;;8.00;47.60;;;;;;2317310;54;21033;-72
2023/03/07 03:25:30;;;;;;;9.98;5.12;;;8.00;47.70;;;;;;2293325;55;21371;-72
2023/03/07 03:27:56;;;;;;;10.00;5.15;;;8.00;48.30;;;;;;2446993;54;21438;-73
2023/03/07 03:30:22;;;;;;;12.27;5.10;;;8.00;47.60;;;;;;2307391;56;20969;-72
2023/03/07 03:32:49;;;;;;;10.82;5.47;;;8.00;47.60;;;;;;2305980;56;20973;-70
2023/03/07 03:35:15;;;;;;;8.70;4.82;;;8.00;47.50;;;;;;2307575;56;21029;-69
2023/03/07 03:37:42;;;;;;;8.85;4.70;;;8.00;47.50;;;;;;2307067;55;20973;-69
2023/03/07 03:40:13;;;;;;;9.38;4.72;;;8.00;47.50;;;;;;2307951;56;21017;-72
2023/03/07 03:42:41;;;;;;;10.05;5.32;;;8.00;47.50;;;;;;2307502;56;20921;-69
2023/03/07 03:45:09;;;;;;;11.65;5.03;;;8.10;47.70;;;;;;2307791;56;20969;-70
2023/03/07 03:47:35;;;;;;;10.40;5.22;;;8.00;47.60;;;;;;2307679;56;20945;-69
2023/03/07 03:50:01;;;;;;;11.57;5.43;;;8.00;47.50;;;;;;2307500;56;21032;-72
2023/03/07 03:52:28;;;;;;;8.85;4.85;;;8.10;47.60;;;;;;2404023;54;20985;-72
2023/03/07 03:54:54;;;;;;;10.13;5.60;;;8.10;47.60;;;;;;2354657;54;20937;-73
2023/03/07 03:57:20;;;;;;;9.52;5.28;;;8.10;47.60;;;;;;2417292;54;20958;-73
2023/03/07 03:59:46;;;;;;;8.80;4.60;;;8.10;47.50;;;;;;2307364;56;21050;-71
2023/03/07 04:02:13;;;;;;;9.30;4.75;;;8.10;47.60;;;;;;2307872;56;21009;-69
2023/03/07 04:04:39;;;;;;;8.88;4.78;;;8.10;47.60;;;;;;2307346;55;20961;-72
2023/03/07 04:07:06;;;;;;;8.93;4.55;;;8.10;47.50;;;;;;2336781;54;21046;-71
2023/03/07 04:09:32;;;;;;;9.00;4.90;;;8.10;47.50;;;;;;2302383;55;21009;-71
2023/03/07 04:11:58;;;;;;;8.60;4.62;;;8.10;47.50;;;;;;2307242;55;21021;-72
2023/03/07 04:14:24;;;;;;;8.52;4.53;;;8.10;47.50;;;;;;2308510;56;20929;-71
2023/03/07 04:16:51;;;;;;;10.20;5.10;;;8.10;47.50;;;;;;2307199;55;20993;-72
2023/03/07 04:19:17;;;;;;;8.05;4.18;;;8.10;47.50;;;;;;2307747;56;20933;-71
2023/03/07 04:21:44;;;;;;;8.32;4.12;;;8.20;47.50;;;;;;2427564;54;20925;-69
2023/03/07 04:24:11;;;;;;;9.00;4.37;;;8.10;47.50;;;;;;2546584;54;21001;-71
2023/03/07 04:26:50;;;;;;;8.93;4.55;;;8.20;47.50;;;;;;2306565;56;20929;-72
2023/03/07 04:29:16;;;;;;;9.55;5.15;;;8.20;47.50;;;;;;2324148;54;20980;-71
2023/03/07 04:31:44;;;;;;;9.52;4.80;;;8.20;47.50;;;;;;2307375;56;20933;-71
2023/03/07 04:34:10;;;;;;;8.45;4.45;;;8.20;47.50;;;;;;2308021;55;21730;-70
2023/03/07 04:36:37;;;;;;;8.90;4.78;;;8.20;47.40;;;;;;2545953;54;21005;-70
2023/03/07 04:39:03;;;;;;;9.38;5.10;;;8.20;47.40;;;;;;2307596;56;21283;-71
2023/03/07 04:41:30;;;;;;;10.32;5.12;;;8.20;47.40;;;;;;2288565;56;20937;-73
2023/03/07 04:43:56;;;;;;;8.95;4.60;;;8.20;47.40;;;;;;2307507;56;21406;-72
2023/03/07 04:46:22;;;;;;;9.52;4.95;;;8.20;47.40;;;;;;2376307;54;21771;-72
2023/03/07 04:48:49;;;;;;;9.52;5.07;;;8.20;47.40;;;;;;2399119;54;20969;-73
2023/03/07 04:51:15;;;;;;;10.02;4.72;;;8.20;47.30;;;;;;2429740;54;20953;-71
2023/03/07 04:53:42;;;;;;;8.27;4.53;;;8.20;47.30;;;;;;2307321;56;21006;-73
2023/03/07 04:56:08;;;;;;;8.93;4.80;;;8.20;47.30;;;;;;2307230;56;20977;-70
2023/03/07 04:58:37;;;;;;;8.70;4.78;;;8.20;47.30;;;;;;2306763;55;20961;-69
2023/03/07 05:01:03;;;;;;;8.13;4.37;;;8.20;47.30;;;;;;2330409;54;20921;-70
2023/03/07 05:03:30;;;;;;;9.85;5.15;;;8.20;47.30;;;;;;2307878;56;20962;-70
2023/03/07 05:06:03;;;;;;;9.50;5.22;;;8.20;47.30;;;;;;2412324;54;20913;-70
2023/03/07 05:08:30;;;;;;;7.43;4.65;;;8.20;47.20;;;;;;2307578;56;20949;-73
2023/03/07 05:10:56;;;;;;;9.07;4.37;;;8.20;47.20;;;;;;2307756;56;20965;-71
2023/03/07 05:13:22;;;;;;;9.32;4.82;;;8.20;47.20;;;;;;2470303;54;20953;-70
2023/03/07 05:15:52;;;;;;;8.60;4.70;;;8.20;47.20;;;;;;2546125;54;21005;-72
2023/03/07 05:18:18;;;;;;;8.15;4.57;;;8.20;47.20;;;;;;2298728;55;21017;-72
2023/03/07 05:20:45;;;;;;;10.02;5.30;;;8.20;47.20;;;;;;2343245;55;20937;-71
2023/03/07 05:23:11;;;;;;;9.02;4.53;;;8.20;47.20;;;;;;2377206;53;20930;-70
2023/03/07 05:25:41;;;;;;;10.48;4.75;;;8.20;47.20;;;;;;2302775;55;20989;-73
2023/03/07 05:28:09;;;;;;;7.95;4.15;;;8.20;47.20;;;;;;2307445;56;20978;-72
2023/03/07 05:30:35;;;;;;;8.80;4.50;;;8.20;47.20;;;;;;2308184;56;20961;-72
2023/03/07 05:33:02;;;;;;;9.70;5.03;;;8.20;47.20;;;;;;2307874;55;20963;-73
2023/03/07 05:35:28;;;;;;;9.63;4.68;;;8.20;47.20;;;;;;2307924;56;21825;-72
2023/03/07 05:37:54;;;;;;;9.18;4.50;;;8.20;47.20;;;;;;2307185;56;21473;-71
2023/03/07 05:40:21;;;;;;;10.45;5.10;;;8.20;47.20;;;;;;2307561;56;21838;-70
2023/03/07 05:42:48;;;;;;;9.50;4.80;;;8.20;47.20;;;;;;2307613;56;21029;-73
2023/03/07 05:45:15;;;;;;;9.05;4.75;;;8.10;47.00;;;;;;2307791;55;21017;-73
2023/03/07 05:47:41;;;;;;;9.15;4.62;;;8.10;47.10;;;;;;2307775;56;21016;-73
2023/03/07 05:50:08;;;;;;;9.02;4.65;;;8.10;47.10;;;;;;2307376;56;20933;-73
2023/03/07 05:52:34;;;;;;;8.10;4.30;;;8.10;47.10;;;;;;2546106;54;20925;-72
2023/03/07 05:55:03;;;;;;;8.43;4.40;;;8.10;47.10;;;;;;2304826;55;21038;-73
2023/03/07 05:57:29;;;;;;;10.35;4.85;;;8.20;47.20;;;;;;2288473;55;20965;-72
2023/03/07 05:59:55;;;;;;;8.38;4.47;;;8.10;47.10;;;;;;2306977;56;21490;-70
2023/03/07 06:02:22;;;;;;;8.40;4.53;;;8.20;47.20;;;;;;2546599;54;20957;-70
2023/03/07 06:04:49;;;;;;;8.38;4.55;;;8.10;47.10;;;;;;2299098;55;21284;-69
2023/03/07 06:07:15;;;;;;;9.02;4.90;;;8.10;47.00;;;;;;2428695;54;21490;-70
2023/03/07 06:09:42;;;;;;;8.38;4.37;;;8.10;47.00;;;;;;2308154;56;20949;-71
2023/03/07 06:12:09;;;;;;;8.18;4.82;;;8.10;47.00;;;;;;2307239;56;20921;-71
2023/03/07 06:14:35;;;;;;;9.02;4.87;;;8.10;47.00;;;;;;2307376;56;21040;-70
2023/03/07 06:17:03;;;;;;;8.57;4.75;;;8.10;47.00;;;;;;2307762;56;21009;-71
2023/03/07 06:19:29;;;;;;;8.82;4.30;;;8.10;47.00;;;;;;2410492;54;21862;-72
2023/03/07 06:21:56;;;;;;;8.80;4.65;;;8.10;47.00;;;;;;2287176;55;20992;-69
2023/03/07 06:24:22;;;;;;;8.15;4.22;;;8.10;47.00;;;;;;2305375;56;21017;-72
2023/03/07 06:26:48;;;;;;;10.35;5.32;;;8.10;47.00;;;;;;2336936;54;21390;-70
2023/03/07 06:29:14;;;;;;;9.75;5.00;;;8.10;47.00;;;;;;2307493;56;21021;-73
2023/03/07 06:31:42;;;;;;;8.65;4.68;;;8.10;47.00;;;;;;2288579;55;21751;-71
2023/03/07 06:34:09;;;;;;;7.60;4.45;;;8.10;47.00;;;;;;2291837;55;20918;-70
2023/03/07 06:37:18;;;;;;;8.55;4.90;;;8.10;47.00;;;;;;2307802;56;20961;-70
2023/03/07 06:39:45;;;;;;;7.93;4.30;;;8.00;46.90;;;;;;2496541;54;21013;-73
2023/03/07 06:42:11;;;;;;;10.35;5.00;;;8.10;47.00;;;;;;2307229;55;21010;-69
2023/03/07 06:44:40;;;;;;;8.60;5.05;;;8.00;47.00;;;;;;2307509;56;21692;-71
2023/03/07 06:47:09;;;;;;;7.35;4.20;;;8.00;47.00;;;;;;2306853;56;20960;-69
2023/03/07 06:49:35;;;;;;;8.30;4.82;;;8.00;47.00;;;;;;2307258;56;21474;-73
2023/03/07 06:52:01;;;;;;;9.90;4.85;;;8.00;46.90;;;;;;2361669;54;21025;-70
2023/03/07 06:54:28;;;;;;;8.10;4.62;;;8.10;47.00;;;;;;2308254;55;21021;-71
2023/03/07 06:56:54;;;;;;;9.82;4.65;;;8.00;46.90;;;;;;2385206;54;21511;-68
2023/03/07 06:59:20;;;;;;;9.68;4.57;;;8.10;47.00;;;;;;2307905;55;21029;-72
2023/03/07 07:01:50;;;;;;;9.45;4.90;;;8.00;47.00;;;;;;2546044;53;21024;-72
2023/03/07 07:04:16;;;;;;;8.38;4.55;;;8.10;47.10;;;;;;2381024;54;21399;-73
2023/03/07 07:06:42;;;;;;;9.73;5.03;;;8.10;47.10;;;;;;2306512;56;20964;-70
2023/03/07 07:09:11;;;;;;;9.25;4.85;;;8.10;47.00;;;;;;2368312;54;20935;-72
2023/03/07 07:11:37;;;;;;;8.13;4.22;;;8.10;47.00;;;;;;2312170;56;21785;-71
2023/03/07 07:14:03;;;;;;;8.20;4.75;;;8.10;47.10;;;;;;2551895;54;20979;-72
2023/03/07 07:16:32;;;;;;;9.70;5.05;;;8.10;47.10;;;;;;2311925;56;20939;-69
2023/03/07 07:18:58;;;;;;;9.10;4.82;;;8.10;47.10;;;;;;2311597;56;20928;-69
2023/03/07 07:21:24;;;;;;;10.00;4.72;;;8.10;47.10;;;;;;2312647;56;20963;-71
2023/03/07 07:23:51;;;;;;;9.40;4.93;;;8.10;47.10;;;;;;2311387;55;21048;-72
2023/03/07 07:26:17;;;;;;;10.07;5.40;;;8.10;47.10;;;;;;2312507;55;20989;-72
2023/03/07 07:28:43;;;;;;;9.68;4.90;;;8.10;47.10;;;;;;2312298;56;21019;-73
2023/03/07 07:31:09;;;;;;;10.27;5.18;;;8.20;47.10;;;;;;2311825;56;20927;-71
2023/03/07 07:33:36;;;;;;;9.15;5.12;;;8.20;47.10;;;;;;2311798;56;20927;-74
2023/03/07 07:36:02;;;;;;;10.60;5.07;;;8.20;47.10;;;;;;2311946;56;21484;-74
2023/03/07 07:38:28;;;;;;;8.93;4.80;;;8.20;47.10;;;;;;2312493;56;20967;-74
2023/03/07 07:40:55;;;;;;;10.48;5.18;;;8.20;47.10;;;;;;2552038;54;20984;-72
2023/03/07 07:43:21;;;;;;;8.80;5.12;;;8.20;47.10;;;;;;2348977;54;20936;-70
2023/03/07 07:45:47;;;;;;;9.43;5.28;;;8.20;47.10;;;;;;2311995;55;21263;-71
2023/03/07 07:48:14;;;;;;;10.82;5.32;;;8.30;47.20;;;;;;2311910;55;21306;-73
2023/03/07 07:50:40;;;;;;;8.95;5.00;;;8.20;47.10;;;;;;2507113;54;21380;-69
2023/03/07 07:53:06;;;;;;;9.52;5.28;;;8.30;47.10;;;;;;2311717;56;20956;-71
2023/03/07 07:55:32;;;;;;;10.18;5.12;;;8.30;47.10;;;;;;2312150;56;21389;-72
2023/03/07 07:57:58;;;;;;;9.98;5.40;;;8.30;47.10;;;;;;2311276;55;20931;-72
2023/03/07 08:00:25;;;;;;;9.68;4.95;;;8.30;47.10;;;;;;2312322;56;21286;-69
2023/03/07 08:02:51;;;;;;;8.13;4.57;;;8.30;47.10;;;;;;2311064;56;20944;-72
2023/03/07 08:05:18;;;;;;;9.38;5.00;;;8.30;47.10;;;;;;2312016;55;20971;-71
2023/03/07 08:07:44;;;;;;;8.23;4.47;;;8.30;47.70;;;;;;2312586;54;20943;-73
2023/03/07 08:10:14;;;;;;;9.02;4.62;;;8.30;47.10;;;;;;2317855;54;20995;-69
2023/03/07 08:12:46;;;;;;;8.90;4.90;;;8.30;47.10;;;;;;2311469;56;21003;-70
2023/03/07 08:15:15;;;;;;;8.65;5.30;;;8.30;47.00;;;;;;2312078;56;21083;-70
2023/03/07 08:17:43;;;;;;;9.82;4.97;;;8.40;47.10;;;;;;2311918;56;20903;-68
2023/03/07 08:20:09;;;;;;;8.75;4.95;;;8.40;47.10;;;;;;2311763;56;20935;-69
2023/03/07 08:22:36;;;;;;;9.13;4.53;;;8.40;47.00;;;;;;2312179;56;21540;-72
2023/03/07 08:25:06;;;;;;;9.18;4.90;;;8.40;47.10;;;;;;2311858;55;21452;-70
2023/03/07 08:27:32;;;;;;;9.48;4.85;;;8.40;47.00;;;;;;2333746;54;21433;-74
2023/03/07 08:29:59;;;;;;;9.48;5.20;;;8.40;47.00;;;;;;2389536;54;21906;-71
2023/03/07 08:32:31;;;;;;;11.05;5.60;;;8.40;46.90;;;;;;2312126;56;21435;-73
2023/03/07 08:34:57;;;;;;;9.80;5.37;;;8.50;47.00;;;;;;2357522;54;21491;-72
2023/03/07 08:37:23;;;;;;;8.02;4.50;;;8.40;46.90;;;;;;2499566;54;21447;-72
2023/03/07 08:39:49;;;;;;;8.43;4.62;;;8.40;46.90;;;;;;2312094;56;21699;-71
2023/03/07 08:42:16;;;;;;;8.73;4.72;;;8.40;46.90;;;;;;2349636;54;21015;-72
2023/03/07 08:44:42;;;;;;;9.20;4.93;;;8.40;46.90;;;;;;2413807;54;21563;-73
2023/03/07 08:47:10;;;;;;;9.18;4.93;;;8.40;46.90;;;;;;2311884;56;21375;-72
2023/03/07 08:49:36;;;;;;;9.25;5.12;;;8.40;46.80;;;;;;2312003;56;21284;-69
2023/03/07 08:52:02;;;;;;;9.73;5.03;;;8.40;46.80;;;;;;2311582;56;21809;-73
2023/03/07 08:54:31;;;;;;;10.30;5.37;;;8.40;46.80;;;;;;2312420;56;20939;-71
2023/03/07 08:56:58;;;;;;;9.70;4.62;;;8.40;46.80;;;;;;2314247;55;21022;-69
2023/03/07 08:59:24;;;;;;;7.65;4.28;;;8.50;46.90;;;;;;2311311;55;21003;-71
2023/03/07 09:01:50;;;;;;;7.57;3.87;;;8.50;46.90;;;;;;2311637;56;20955;-72
2023/03/07 09:04:16;;;;;;;9.18;4.97;;;8.50;46.90;;;;;;2550998;54;20904;-72
2023/03/07 09:06:43;;;;;;;7.57;4.30;;;8.50;46.80;;;;;;2369161;54;21432;-72
2023/03/07 09:09:09;;;;;;;7.12;4.00;;;8.50;46.80;;;;;;2311889;56;21003;-72
2023/03/07 09:11:35;;;;;;;9.55;4.20;;;8.60;46.90;;;;;;2311665;55;20963;-70
2023/03/07 09:14:02;;;;;;;7.80;3.85;;;8.60;46.90;;;;;;2550700;54;21123;-73
2023/03/07 09:16:28;;;;;;;8.40;4.35;;;8.60;46.80;;;;;;2311993;56;21244;-71
2023/03/07 09:18:54;;;;;;;9.48;4.93;;;8.60;46.80;;;;;;2311452;56;21425;-72
2023/03/07 09:21:21;;;;;;;9.07;4.57;;;8.70;46.80;;;;;;2373440;54;21459;-70
2023/03/07 09:23:47;;;;;;;9.52;4.70;;;8.70;46.80;;;;;;2363369;54;20931;-72
2023/03/07 09:26:13;;;;;;;7.82;4.37;;;8.70;46.70;;;;;;2311863;56;21536;-70
2023/03/07 09:28:40;;;;;;;8.50;4.93;;;8.70;46.60;;;;;;2311799;56;20940;-69
2023/03/07 09:31:10;;;;;;;10.00;5.00;;;8.80;46.60;;;;;;2310877;55;21043;-72
2023/03/07 09:33:36;;;;;;;9.90;4.62;;;8.80;46.50;;;;;;2311592;56;20996;-72
2023/03/07 09:36:06;;;;;;;12.02;6.03;;;8.80;46.50;;;;;;2387779;54;21681;-73
2023/03/07 09:38:32;;;;;;;11.50;5.70;;;8.80;46.50;;;;;;2312355;56;21014;-69
2023/03/07 09:48:08;;;;;;;9.82;5.32;;;8.80;46.50;;;;;;2311689;56;21078;-71
2023/03/07 09:50:51;;;;;;;6.43;3.47;;;8.90;46.40;;;;;;2435368;54;20939;-71
2023/03/07 09:53:38;;;;;;;9.63;4.00;;;9.00;46.40;;;;;;2312074;56;20936;-73
2023/03/07 09:56:13;;;;;;;7.30;4.28;;;9.00;46.30;;;;;;2384259;54;21512;-70
2023/03/07 09:58:42;;;;;;;9.73;4.25;;;9.00;46.40;;;;;;2311905;56;21039;-71
2023/03/07 10:01:09;;;;;;;9.38;5.28;;;9.00;46.40;;;;;;2361210;54;2262120;-70
2023/03/07 10:03:58;;;;;;;9.40;4.45;;;9.00;46.30;;;;;;2311539;55;20960;-69
2023/03/07 10:06:39;;;;;;;8.90;4.90;;;9.10;46.40;;;;;;2284893;56;20955;-70
2023/03/07 10:09:17;;;;;;;10.90;5.65;;;9.10;46.30;;;;;;2285166;55;21482;-73
2023/03/07 10:12:06;;;;;;;9.63;4.90;;;9.20;46.40;;;;;;2414541;54;20981;-69
2023/03/07 10:17:29;;;;;;;7.87;3.58;;;9.20;46.40;;;;;;2311349;56;20914;-72
2023/03/07 10:21:36;;;;;;;7.55;3.53;;;9.30;46.40;;;;;;2311268;55;21406;-73
2023/03/07 10:24:32;;;;;;;7.10;3.47;;;9.30;46.30;;;;;;2311331;55;21040;-72
2023/03/07 10:27:11;;;;;;;7.57;3.85;;;9.40;46.20;;;;;;2326746;54;21436;-71
2023/03/07 10:29:45;;;;;;;9.20;4.93;;;9.40;46.30;;;;;;2285083;55;21443;-69
2023/03/07 10:32:20;;;;;;;7.45;4.50;;;9.40;46.20;;;;;;2289005;55;20984;-70
2023/03/07 10:34:58;;;;;;;7.82;4.37;;;9.40;46.20;;;;;;2283641;55;21519;-71
2023/03/07 10:38:01;;;;;;;9.27;5.18;;;9.50;46.20;;;;;;2338583;54;21034;-71
2023/03/07 10:40:35;;;;;;;9.35;4.70;;;9.50;46.10;;;;;;2426938;54;21513;-70
2023/03/07 10:43:01;;;;;;;10.43;5.53;;;9.50;45.90;;;;;;2284218;56;21007;-69
2023/03/07 10:45:29;;;;;;;9.80;5.22;;;9.60;45.90;;;;;;2334702;55;20967;-69
2023/03/07 10:48:04;;;;;;;9.88;4.95;;;9.60;45.80;;;;;;2305231;56;20994;-72
2023/03/07 10:50:52;;;;;;;9.30;5.35;;;9.60;46.30;;;;;;2311333;56;20960;-72
2023/03/07 10:53:25;;;;;;;8.45;4.82;;;9.70;45.50;;;;;;2342277;54;20954;-71
2023/03/07 10:55:51;;;;;;;9.25;4.47;;;9.70;45.70;;;;;;2284521;55;20935;-69
2023/03/07 10:58:28;;;;;;;8.73;4.85;;;9.70;45.70;;;;;;2387820;55;21662;-73
2023/03/07 11:01:29;;;;;;;8.85;4.25;;;9.70;45.60;;;;;;2455218;55;21003;-71
2023/03/07 11:04:29;;;;;;;8.75;5.22;;;9.80;45.60;;;;;;2280108;56;20978;-71
2023/03/07 11:06:57;;;;;;;8.45;4.25;;;9.80;45.30;;;;;;2279970;55;21089;-69
2023/03/07 11:09:33;;;;;;;6.80;3.58;;;9.80;45.60;;;;;;2280124;55;21024;-71
2023/03/07 11:12:11;;;;;;;7.72;4.00;;;9.90;45.40;;;;;;2284785;56;20977;-72
2023/03/07 11:15:37;;;;;;;8.00;4.10;;;9.90;45.30;;;;;;2280434;56;20949;-70
2023/03/07 11:18:04;;;;;;;7.93;4.50;;;9.90;44.80;;;;;;2356599;55;21230;-71
2023/03/07 11:20:50;;;;;;;7.45;4.18;;;9.90;45.10;;;;;;2380665;55;21294;-70
2023/03/07 11:23:23;;;;;;;9.05;4.50;;;10.00;43.90;;;;;;2279779;55;21271;-71
2023/03/07 11:25:50;;;;;;;6.82;4.28;;;10.00;44.00;;;;;;2476536;54;20981;-69
2023/03/07 11:28:30;;;;;;;8.35;4.78;;;10.00;43.90;;;;;;2295632;54;21002;-74
2023/03/07 11:32:32;;;;;;;7.65;4.30;;;10.00;43.50;;;;;;2280591;55;21589;-70
2023/03/07 11:35:01;;;;;;;6.78;3.62;;;10.00;43.70;;;;;;2361860;53;20998;-70
2023/03/07 11:37:38;;;;;;;7.03;3.80;;;10.00;43.70;;;;;;2281353;55;20991;-72
2023/03/07 11:40:27;;;;;;;8.18;4.12;;;10.00;43.40;;;;;;2280484;55;20943;-70
2023/03/07 11:43:05;;;;;;;7.32;3.80;;;10.00;43.30;;;;;;2279943;55;21361;-73
2023/03/07 11:45:59;;;;;;;7.03;3.90;;;10.00;43.40;;;;;;2367670;54;21196;-69
2023/03/07 11:48:55;;;;;;;6.53;3.53;;;10.00;43.10;;;;;;2295626;55;21065;-71
2023/03/07 11:53:30;;;;;;;5.57;3.25;;;10.00;43.10;;;;;;2319372;55;21077;-72
2023/03/07 11:56:04;;;;;;;4.80;2.62;;;10.00;43.10;;;;;;2275770;55;21002;-73
2023/03/07 11:58:35;;;;;;;6.55;3.20;;;10.10;43.60;;;;;;2311371;56;21023;-73
2023/03/07 12:01:27;;;;;;;6.50;3.47;;;10.10;43.50;;;;;;2316626;54;21529;-71
2023/03/07 12:05:47;;;;;;;5.55;3.03;;;10.10;43.40;;;;;;2283755;56;21476;-69
2023/03/07 12:09:50;;;;;;;5.62;2.85;;;10.10;43.10;;;;;;2289881;56;20991;-72
2023/03/07 12:16:54;;;;;;;5.40;3.08;;;10.10;43.40;;;;;;2285368;55;21388;-72
2023/03/07 12:21:10;;;;;;;4.62;2.20;;;10.20;43.10;;;;;;2356212;55;20967;-72
2023/03/07 12:23:41;;;;;;;7.03;3.53;;;10.30;43.60;;;;;;2324944;55;20969;-70
2023/03/07 12:26:35;;;;;;;6.60;3.90;;;10.30;44.10;;;;;;2305893;56;20947;-73
2023/03/07 12:29:05;;;;;;;6.15;3.10;;;10.40;43.50;;;;;;2265393;56;21013;-73
2023/03/07 12:31:37;;;;;;;12.10;4.82;;;10.50;43.70;;;;;;2276136;56;20978;-70
2023/03/07 12:37:03;;;;;;;8.60;4.32;;;10.50;43.50;;;;;;2292911;56;21003;-71
2023/03/07 12:43:32;;;;;;;7.90;3.75;;;10.70;43.30;;;;;;2416815;54;20989;-70
2023/03/07 12:46:51;;;;;;;7.70;3.42;;;10.80;43.10;;;;;;2287936;55;20933;-71
2023/03/07 12:50:10;;;;;;;7.78;3.75;;;11.00;43.30;;;;;;2306363;55;21427;-70
2023/03/07 12:52:49;;;;;;;6.78;3.80;;;11.10;43.10;;;;;;2329760;54;21403;-72
2023/03/07 12:55:47;;;;;;;6.03;3.33;;;11.20;43.10;;;;;;2500754;54;20983;-71
2023/03/07 12:59:36;;;;;;;6.47;3.30;;;11.30;43.00;;;;;;2283983;55;21848;-71
2023/03/07 13:02:13;;;;;;;6.70;3.40;;;11.40;43.30;;;;;;2377490;54;21598;-73
2023/03/07 13:04:42;;;;;;;5.62;3.00;;;11.50;43.70;;;;;;2284692;56;21097;-74
2023/03/07 13:07:16;;;;;;;6.47;3.60;;;11.60;43.60;;;;;;2368701;54;21477;-74
2023/03/07 13:09:44;;;;;;;6.20;3.22;;;11.70;43.20;;;;;;2361397;54;20942;-73
2023/03/07 13:12:31;;;;;;;8.80;4.25;;;11.80;43.30;;;;;;2374209;54;22373;-71
2023/03/07 13:16:38;;;;;;;7.60;3.75;;;12.00;42.70;;;;;;2386679;54;20930;-73
2023/03/07 13:19:41;;;;;;;7.30;3.33;;;12.00;42.80;;;;;;2309945;55;21431;-72
2023/03/07 13:23:29;;;;;;;8.15;4.20;;;12.20;41.90;;;;;;2284646;56;21008;-71
2023/03/07 13:26:00;;;;;;;8.25;4.22;;;12.20;41.50;;;;;;2300427;55;21295;-70
2023/03/07 13:28:34;;;;;;;7.93;4.15;;;12.30;42.00;;;;;;2295478;55;21014;-70
2023/03/07 13:34:45;;;;;;;7.35;3.90;;;12.30;41.60;;;;;;2284667;56;21007;-72
2023/03/07 13:37:47;;;;;;;5.85;2.42;;;12.50;41.80;;;;;;2285020;55;20942;-73
2023/03/07 13:41:05;;;;;;;6.07;3.42;;;12.60;41.80;;;;;;2287729;55;21078;-71
2023/03/07 13:43:34;;;;;;;6.22;2.97;;;12.60;42.00;;;;;;2414599;54;20942;-73
2023/03/07 13:46:01;;;;;;;5.87;3.00;;;12.70;42.20;;;;;;2285427;55;20935;-73
2023/03/07 13:49:31;;;;;;;6.97;3.47;;;12.70;41.90;;;;;;2285541;55;21463;-71
2023/03/07 13:58:46;;;;;;;5.93;2.85;;;12.80;41.40;;;;;;2284988;55;20978;-74
2023/03/07 14:02:44;;;;;;;5.87;2.58;;;13.20;41.80;;;;;;2461350;55;21536;-73